Terminal Aerodrome Forecast
Issued by NWS Milwaukee/Sullivan, WI

Home | Current Version | Previous Version | Text Only | Print | Product List | Glossary On
Versions: 1 2 3 4 5 6 7 8 9 10 11 12 13 14 15 16 17 18 19 20 21 22 23 24 25 26 27 28 29 30 31 32 33 34 35 36 37 38 39 40 41 42 43 44 45 46 47 48 49 50
184
FTUS43 KMKX 240520
TAFMSN
TAF
KMSN 240520Z 2406/2506 18010KT P6SM VCTS SCT025CB BKN050
     FM240700 17007KT 5SM BR BKN060
     FM241000 19007KT 3SM BR VCTS SCT050CB OVC070
     FM241400 22008KT P6SM SCT110 BKN140
     FM242000 27012KT P6SM FEW080
     FM250500 29004KT P6SM SCT200=

USA.gov is the U.S. government's official web portal to all federal, state and local government web resources and services.